• Join FlightAware (Why Join?)
  • Login
  • US Flag 
10:23AM EST


 

Airport Tracker/Info


-or-


 

Live Flight TrackerFlight Track Log ✈ EJA618 ✈ 17-Jul-2013 ✈ KHPN - CYYZ

Flight Track Log - Related Links

Times and Time Zones

All times are in EDT time to prevent confusion due to time zone crossing. See the EJA618 flight status page for this flight to view local times or setup timezone preferences in your user account.

Time Position Orientation Groundspeed Altitude Reporting Facility
EDT Latitude Longitude Course Direction KTS MPH feet Rate Location/Type
02:00PM 41.1000 -73.7667 270° West 197 227 3,500  Level New York TRACON
02:01PM 41.1000 -73.8500 270° West 252 290 5,900 2,400 Climbing New York TRACON
02:02PM 41.1278 -73.9225 297° West 294 338 8,100 2,820 Climbing New York Center
02:03PM 41.1625 -74.0231 295° West 289 333 11,300 1,920 Climbing New York Center
02:04PM 41.1786 -74.1178 283° West 283 326 12,000 540 Climbing New York Center
02:05PM 41.1503 -74.2375 253° West 302 348 12,400 480 Climbing New York Center
02:06PM 41.1347 -74.3358 258° West 312 359 13,000 840 Climbing New York Center
02:08PM 41.2154 -74.4904 305° West  Level Estimated
02:08PM 41.2942 -74.3747 305° West 262 302 15,100  Level New York Center
02:09PM 41.3792 -74.4483 327° Northwest 306 352 16,400 1,200 Climbing New York Center
02:10PM 41.4239 -74.5503 300° West 347 399 17,500 1,080 Climbing New York Center
02:11PM 41.4803 -74.6753 301° West 364 419 18,600 1,020 Climbing New York Center
02:12PM 41.5264 -74.7861 299° West 369 425 19,600 1,020 Climbing New York Center
02:13PM 41.5767 -74.9028 300° West 369 425 20,700 1,080 Climbing New York Center
02:14PM 41.6267 -75.0225 299° West 374 430 21,900 1,140 Climbing New York Center
02:15PM 41.6783 -75.1422 300° West 374 430 23,000 1,020 Climbing New York Center
02:16PM 41.7278 -75.2681 298° West 374 430 24,000 960 Climbing New York Center
02:17PM 41.7814 -75.3911 300° West 379 436 25,000 1,020 Climbing New York Center
02:18PM 41.8325 -75.5200 298° West 384 442 26,100 1,020 Climbing New York Center
02:19PM 41.8858 -75.6464 300° West 384 442 27,100 960 Climbing New York Center
02:20PM 41.9367 -75.7756 298° West 384 442 28,100 900 Climbing New York Center
02:21PM 41.9894 -75.9022 299° West 384 442 29,000 720 Climbing New York Center
02:22PM 42.0422 -76.0292 299° West 384 442 29,600 300 Climbing New York Center
02:24PM 42.1444 -76.2867 298° West 415 478 30,000 120 Climbing Cleveland Center
02:25PM 42.2086 -76.4450 299° West 431 496 30,000  Level Cleveland Center
02:26PM 42.2636 -76.5847 298° West 431 496 30,000  Level Cleveland Center
02:27PM 42.3208 -76.7300 298° West 431 496 30,000  Level Cleveland Center
02:28PM 42.3775 -76.8728 298° West 431 496 30,000  Level Cleveland Center
02:29PM 42.4167 -76.9500 305° West 430 495 30,000  Level Toronto Center
02:30PM 42.4500 -77.0833 289° West 420 483 30,000  Level Toronto Center
02:31PM 42.5000 -77.2333 294° West 420 483 30,000  Level Toronto Center
02:32PM 42.5333 -77.3667 289° West 420 483 30,000  Level Toronto Center
02:33PM 42.6000 -77.5000 304° West 420 483 30,000  Level Toronto Center
02:34PM 42.6167 -77.6667 278° West 410 472 30,000  Level Toronto Center
02:35PM 42.6333 -77.8167 279° West 420 483 30,000  Level Toronto Center
02:36PM 42.6333 -77.9833 270° West 420 483 30,000  Level Toronto Center
02:37PM 42.6333 -78.1333 270° West 420 483 30,000  Level Toronto Center
02:38PM 42.6500 -78.3000 278° West 420 483 30,000  Level Toronto Center
02:39PM 42.6500 -78.4500 270° West 420 483 30,000 -600 Level Toronto Center
02:40PM 42.7333 -78.5667 314° West 420 483 28,800 -1,740 Descending Toronto Center
02:41PM 42.8667 -78.6167 345° North 440 506 26,600 -2,160 Descending Toronto Center
02:42PM 42.9500 -78.6833 330° Northwest 410 472 24,500 -1,980 Descending Toronto Center
02:43PM 43.0000 -78.7833 304° West 370 426 22,700 -2,040 Descending Toronto Center
02:44PM 43.0667 -78.9000 308° West 340 391 20,500 -2,100 Descending Toronto Center
02:45PM 43.1167 -79.0000 304° West 320 368 18,600 -1,920 Descending Toronto Center
02:46PM 43.1667 -79.0833 309° West 310 357 16,700 -2,040 Descending Toronto Center
02:47PM 43.2167 -79.1833 304° West 300 345 14,600 -2,100 Descending Toronto Center
02:48PM 43.2667 -79.2667 310° West 300 345 12,600 -1,320 Descending Toronto Center
02:49PM 43.3167 -79.3333 316° Northwest 280 322 12,000 -900 Descending Toronto Center
02:50PM 43.3833 -79.3833 331° Northwest 280 322 10,900 -1,380 Descending Toronto Center
02:51PM 43.4500 -79.4333 331° Northwest 280 322 9,300 -1,500 Descending Toronto Center
02:52PM 43.5167 -79.4667 340° North 270 311 8,000 -840 Descending Toronto Center
02:53PM 43.5833 -79.5000 340° North 260 299 7,700 -900 Descending Toronto Center
02:54PM 43.6500 -79.4500 28° Northeast 280 322 6,300 -1,440 Descending Toronto Center
02:55PM 43.7000 -79.3500 55° Northeast 280 322 4,900 -1,200 Descending Toronto Center
02:56PM 43.7500 -79.3167 26° Northeast 270 311 4,000 -780 Descending Toronto Center
02:57PM 43.7833 -79.3833 305° West 240 276 3,400 -540 Descending Toronto Center
02:58PM 43.7667 -79.4333 245° Southwest 210 242 3,000 -540 Descending Toronto Center
02:59PM 43.7333 -79.4667 216° Southwest 160 184 2,400 -660 Descending Toronto Center
03:00PM 43.7000 -79.5167 227° Southwest 150 173 1,700 -720 Descending Toronto Center
03:01PM 43.6833 -79.5667 245° Southwest 140 161 1,000 -600 Descending Toronto Center
03:02PM 43.6667 -79.5833 216° Southwest 120 138 600 -420 Descending Toronto Center